Ginys del Meteocat
Campanya meteocatpedra

Dades de l'estació automàtica Tírvia

?
?
Resum diari 22:00 TU
Dades diàries de l'estació meteorològica
Temperatura mitjana 7.6 °C
Temperatura màxima 14.3 °C 13:08 TU
Temperatura mínima 3.8 °C 6:52 TU
Humitat relativa mitjana 87%
Precipitació acumulada 0.0 mm
Ratxa màxima del vent (6 m) 23.0 km/h - 239º 13:58 TU
Pressió atmosfèrica mitjana 1018.7 hPa

El tram horari està expressat en Temps Universal (TU). Cal sumar una hora en horari d'hivern i dues en horari d'estiu per passar a l'hora oficial.

Tírvia

Metadades estació meteorol´gica
Municipi Tírvia
Comarca Pallars Sobirà
Altitud 954 m
Data alta 11.01.2018
Estat actual Operativa
Dades de període
Període
TU
TM
°C
TX
°C
TN
°C
HRM
%
PPT
mm
VVM (6 m)
km/h
DVM (6 m)
graus
VVX (6 m)
km/h
PM
hPa
00:00 - 00:30 6.3 6.6 6.1 93 0.0 1.8 25 7.9 1016.8
00:30 - 01:00 6.1 6.2 5.9 95 0.0 1.1 145 7.6 1017.0
01:00 - 01:30 5.4 5.9 5.2 95 0.0 0.7 1 4.7 1017.3
01:30 - 02:00 5.1 5.2 5.0 96 0.0 1.4 147 5.8 1017.7
02:00 - 02:30 4.9 5.2 4.7 96 0.0 1.4 20 5.8 1017.6
02:30 - 03:00 4.7 4.9 4.5 97 0.0 1.1 60 7.9 1017.9
03:00 - 03:30 4.9 4.9 4.7 96 0.0 1.4 31 8.3 1018.1
03:30 - 04:00 4.6 4.7 4.4 96 0.0 0.7 47 3.2 1018.3
04:00 - 04:30 4.5 4.7 4.4 97 0.0 0.4 146 2.9 1018.5
04:30 - 05:00 4.4 4.6 4.2 97 0.0 0.7 18 2.9 1018.6
05:00 - 05:30 4.1 4.2 4.0 97 0.0 0.7 149 2.5 1019.1
05:30 - 06:00 4.0 4.2 3.8 97 0.0 0.4 146 3.6 1019.3
06:00 - 06:30 3.9 4.1 3.8 97 0.0 0.7 146 2.9 1019.5
06:30 - 07:00 3.9 4.1 3.8 98 0.0 0.7 112 2.9 1019.6
07:00 - 07:30 4.3 4.7 4.0 98 0.0 0.4 103 2.2 1019.8
07:30 - 08:00 4.8 5.3 4.5 98 0.0 0.4 10 2.5 1019.9
08:00 - 08:30 5.6 5.9 5.3 97 0.0 0.4 302 2.5 1019.7
08:30 - 09:00 7.1 8.1 5.7 93 0.0 1.1 6 4.3 1019.4
09:00 - 09:30 7.6 7.9 7.2 89 0.0 1.1 283 3.6 1019.4
09:30 - 10:00 8.1 8.3 7.9 87 0.0 0.7 332 2.9 1019.3
10:00 - 10:30 8.4 8.6 8.1 87 0.0 0.7 326 4.3 1019.4
10:30 - 11:00 9.0 9.4 8.5 85 0.0 0.7 235 4.7 1018.7
11:00 - 11:30 9.2 9.6 9.1 84 0.0 0.4 297 4.0 1018.6
11:30 - 12:00 10.6 11.2 9.7 78 0.0 1.1 258 4.7 1017.7
12:00 - 12:30 11.6 12.9 10.5 72 0.0 2.9 202 9.7 1017.1
12:30 - 13:00 13.0 13.9 12.0 62 0.0 5.8 246 16.2 1016.3
13:00 - 13:30 13.6 14.3 12.8 59 0.0 7.2 253 18.0 1015.7
13:30 - 14:00 13.8 14.3 13.1 58 0.0 9.4 247 23.0 1015.6
14:00 - 14:30 12.4 13.3 11.9 63 0.0 10.1 252 23.0 1016.1
14:30 - 15:00 11.6 12.0 11.2 68 0.0 6.5 267 20.9 1016.6
15:00 - 15:30 11.0 11.3 10.9 76 0.0 2.9 63 10.4 1017.1
15:30 - 16:00 10.8 10.9 10.6 76 0.0 1.4 64 7.2 1017.2
16:00 - 16:30 10.6 10.7 10.2 77 0.0 2.5 144 9.4 1017.6
16:30 - 17:00 10.1 10.2 9.7 80 0.0 4.0 129 10.1 1018.0
17:00 - 17:30 9.6 9.8 9.3 81 0.0 5.0 149 10.8 1018.5
17:30 - 18:00 9.1 9.4 8.6 82 0.0 3.2 156 9.7 1019.2
18:00 - 18:30 8.5 8.7 8.0 85 0.0 0.7 138 3.6 1019.8
18:30 - 19:00 7.8 8.2 7.3 88 0.0 0.4 90 2.2 1020.2
19:00 - 19:30 7.4 7.5 7.2 90 0.0 0.4 175 2.2 1020.6
19:30 - 20:00 7.1 7.4 7.0 91 0.0 0.7 17 2.9 1020.9
20:00 - 20:30 6.7 7.0 6.6 93 0.0 1.1 66 5.4 1021.2
20:30 - 21:00 6.8 7.0 6.7 93 0.0 0.4 132 2.5 1021.4
21:00 - 21:30 6.4 6.7 6.3 94 0.0 0.0 182 1.8 1021.5
21:30 - 22:00 6.2 6.4 6.1 95 0.0 1.1 157 2.9 1021.5
22:00 - 22:30 5.9 6.1 5.7 96 0.0 0.7 36 2.9 1021.9
22:30 - 23:00 (s/d) (s/d) (s/d) (s/d) (s/d) (s/d) (s/d) (s/d) (s/d)

Les dades en taronja només han passat un control de qualitat automàtic. Resta pendent la seva validació definitiva.